<?xml version="1.0" encoding="utf-8"?>
<gpx xmlns:xsi="http://www.w3.org/2001/XMLSchema-instance" xmlns:xsd="http://www.w3.org/2001/XMLSchema" version="1.1" creator="Shapelink.com" xmlns="http://www.topografix.com/GPX/1/1" xmlns:gpxtpx="http://www.garmin.com/xmlschemas/TrackPointExtension/v1">
  <metadata>
    <name>Cykling 12.58 km, 2019-08-20</name>
    <desc></desc>
    <author><name>Henrik Staffas</name></author> 
    <time>2019-08-20T17:25:46Z</time>
  </metadata>
  <trk>
    <name>Cykling 12.58 km, 2019-08-20</name>
    <trkseg>
      <trkpt lat="59.333725156058" lon="18.018156280321">
        <ele>73.4</ele>
        <time>2019-08-20T17:25:46Z</time>
      </trkpt>
      <trkpt lat="59.33366631512" lon="18.018119316142">
        <ele>73.4</ele>
        <time>2019-08-20T17:25:48Z</time>
      </trkpt>
      <trkpt lat="59.333226349189" lon="18.017510874021">
        <ele>73.6</ele>
        <time>2019-08-20T17:26:01Z</time>
      </trkpt>
      <trkpt lat="59.333218554022" lon="18.017463432467">
        <ele>73.4</ele>
        <time>2019-08-20T17:26:02Z</time>
      </trkpt>
      <trkpt lat="59.333561289913" lon="18.016662458103">
        <ele>74</ele>
        <time>2019-08-20T17:26:16Z</time>
      </trkpt>
      <trkpt lat="59.333746948998" lon="18.016179828301">
        <ele>73.2</ele>
        <time>2019-08-20T17:26:25Z</time>
      </trkpt>
      <trkpt lat="59.333874772973" lon="18.015872966942">
        <ele>74.2</ele>
        <time>2019-08-20T17:26:29Z</time>
      </trkpt>
      <trkpt lat="59.333939062146" lon="18.01571639305">
        <ele>74.4</ele>
        <time>2019-08-20T17:26:31Z</time>
      </trkpt>
      <trkpt lat="59.334037214195" lon="18.015526207739">
        <ele>74.8</ele>
        <time>2019-08-20T17:26:34Z</time>
      </trkpt>
      <trkpt lat="59.334104017938" lon="18.015374914444">
        <ele>75.2</ele>
        <time>2019-08-20T17:26:36Z</time>
      </trkpt>
      <trkpt lat="59.334249192446" lon="18.015000411152">
        <ele>74.6</ele>
        <time>2019-08-20T17:26:41Z</time>
      </trkpt>
      <trkpt lat="59.334383219027" lon="18.014691370499">
        <ele>74.8</ele>
        <time>2019-08-20T17:26:45Z</time>
      </trkpt>
      <trkpt lat="59.334688236368" lon="18.013981423569">
        <ele>75</ele>
        <time>2019-08-20T17:26:55Z</time>
      </trkpt>
      <trkpt lat="59.334971879864" lon="18.013636340746">
        <ele>74.8</ele>
        <time>2019-08-20T17:27:05Z</time>
      </trkpt>
      <trkpt lat="59.335087130989" lon="18.01372485361">
        <ele>75.8</ele>
        <time>2019-08-20T17:27:08Z</time>
      </trkpt>
      <trkpt lat="59.335242782872" lon="18.013884528805">
        <ele>77</ele>
        <time>2019-08-20T17:27:12Z</time>
      </trkpt>
      <trkpt lat="59.335394159986" lon="18.014105224232">
        <ele>78</ele>
        <time>2019-08-20T17:27:17Z</time>
      </trkpt>
      <trkpt lat="59.335510500758" lon="18.014332876636">
        <ele>79.2</ele>
        <time>2019-08-20T17:27:21Z</time>
      </trkpt>
      <trkpt lat="59.335586189315" lon="18.014503364482">
        <ele>80.6</ele>
        <time>2019-08-20T17:27:24Z</time>
      </trkpt>
      <trkpt lat="59.335702865363" lon="18.014690616128">
        <ele>81.2</ele>
        <time>2019-08-20T17:27:27Z</time>
      </trkpt>
      <trkpt lat="59.335771261667" lon="18.014868563865">
        <ele>81.6</ele>
        <time>2019-08-20T17:27:29Z</time>
      </trkpt>
      <trkpt lat="59.336034537146" lon="18.015225716624">
        <ele>82.2</ele>
        <time>2019-08-20T17:27:34Z</time>
      </trkpt>
      <trkpt lat="59.336093042808" lon="18.015279612241">
        <ele>82.6</ele>
        <time>2019-08-20T17:27:35Z</time>
      </trkpt>
      <trkpt lat="59.336254394383" lon="18.015428810061">
        <ele>83.8</ele>
        <time>2019-08-20T17:27:38Z</time>
      </trkpt>
      <trkpt lat="59.336390684077" lon="18.015571889094">
        <ele>85</ele>
        <time>2019-08-20T17:27:41Z</time>
      </trkpt>
      <trkpt lat="59.336498140035" lon="18.015716476869">
        <ele>86</ele>
        <time>2019-08-20T17:27:44Z</time>
      </trkpt>
      <trkpt lat="59.336627472752" lon="18.015900124298">
        <ele>87.2</ele>
        <time>2019-08-20T17:27:48Z</time>
      </trkpt>
      <trkpt lat="59.336662173818" lon="18.016153006221">
        <ele>88.6</ele>
        <time>2019-08-20T17:27:51Z</time>
      </trkpt>
      <trkpt lat="59.336728893742" lon="18.016388369973">
        <ele>89.6</ele>
        <time>2019-08-20T17:27:57Z</time>
      </trkpt>
      <trkpt lat="59.337170619872" lon="18.016709145286">
        <ele>90.2</ele>
        <time>2019-08-20T17:28:10Z</time>
      </trkpt>
      <trkpt lat="59.337253097768" lon="18.016559025457">
        <ele>90.6</ele>
        <time>2019-08-20T17:28:12Z</time>
      </trkpt>
      <trkpt lat="59.337284948988" lon="18.016484678004">
        <ele>90.8</ele>
        <time>2019-08-20T17:28:13Z</time>
      </trkpt>
      <trkpt lat="59.337355273129" lon="18.016325924818">
        <ele>90.8</ele>
        <time>2019-08-20T17:28:15Z</time>
      </trkpt>
      <trkpt lat="59.337477145955" lon="18.016102128088">
        <ele>90.8</ele>
        <time>2019-08-20T17:28:18Z</time>
      </trkpt>
      <trkpt lat="59.337817367276" lon="18.015204510417">
        <ele>89.8</ele>
        <time>2019-08-20T17:28:28Z</time>
      </trkpt>
      <trkpt lat="59.337856091654" lon="18.015092109138">
        <ele>89.6</ele>
        <time>2019-08-20T17:28:29Z</time>
      </trkpt>
      <trkpt lat="59.337933456591" lon="18.014847106201">
        <ele>89</ele>
        <time>2019-08-20T17:28:31Z</time>
      </trkpt>
      <trkpt lat="59.338018365238" lon="18.01458316017">
        <ele>88.4</ele>
        <time>2019-08-20T17:28:33Z</time>
      </trkpt>
      <trkpt lat="59.338114505631" lon="18.01432499765">
        <ele>88</ele>
        <time>2019-08-20T17:28:35Z</time>
      </trkpt>
      <trkpt lat="59.33821684863" lon="18.014083766568">
        <ele>87</ele>
        <time>2019-08-20T17:28:37Z</time>
      </trkpt>
      <trkpt lat="59.338323801674" lon="18.013867681186">
        <ele>85.6</ele>
        <time>2019-08-20T17:28:39Z</time>
      </trkpt>
      <trkpt lat="59.338422875732" lon="18.013698618263">
        <ele>84.2</ele>
        <time>2019-08-20T17:28:41Z</time>
      </trkpt>
      <trkpt lat="59.338530583147" lon="18.013664001016">
        <ele>82.6</ele>
        <time>2019-08-20T17:28:43Z</time>
      </trkpt>
      <trkpt lat="59.338623119323" lon="18.013801045081">
        <ele>81.6</ele>
        <time>2019-08-20T17:28:45Z</time>
      </trkpt>
      <trkpt lat="59.338708195608" lon="18.013985782157">
        <ele>80.4</ele>
        <time>2019-08-20T17:28:47Z</time>
      </trkpt>
      <trkpt lat="59.338856303781" lon="18.014261714305">
        <ele>80.2</ele>
        <time>2019-08-20T17:28:50Z</time>
      </trkpt>
      <trkpt lat="59.338989156896" lon="18.014613502648">
        <ele>79.8</ele>
        <time>2019-08-20T17:28:53Z</time>
      </trkpt>
      <trkpt lat="59.339082363624" lon="18.014824642709">
        <ele>79.2</ele>
        <time>2019-08-20T17:28:55Z</time>
      </trkpt>
      <trkpt lat="59.339193591437" lon="18.015111052232">
        <ele>78.4</ele>
        <time>2019-08-20T17:28:58Z</time>
      </trkpt>
      <trkpt lat="59.339216390205" lon="18.015208952824">
        <ele>78</ele>
        <time>2019-08-20T17:28:59Z</time>
      </trkpt>
      <trkpt lat="59.339267184519" lon="18.015418165048">
        <ele>77</ele>
        <time>2019-08-20T17:29:02Z</time>
      </trkpt>
      <trkpt lat="59.339279254455" lon="18.01548924356">
        <ele>76.4</ele>
        <time>2019-08-20T17:29:03Z</time>
      </trkpt>
      <trkpt lat="59.339302053223" lon="18.015543306815">
        <ele>76</ele>
        <time>2019-08-20T17:29:04Z</time>
      </trkpt>
      <trkpt lat="59.33933164133" lon="18.015585551591">
        <ele>75.4</ele>
        <time>2019-08-20T17:29:05Z</time>
      </trkpt>
      <trkpt lat="59.33936684531" lon="18.015598543536">
        <ele>74.8</ele>
        <time>2019-08-20T17:29:06Z</time>
      </trkpt>
      <trkpt lat="59.339412526665" lon="18.015550179973">
        <ele>74.2</ele>
        <time>2019-08-20T17:29:07Z</time>
      </trkpt>
      <trkpt lat="59.339475726191" lon="18.015462086204">
        <ele>73.6</ele>
        <time>2019-08-20T17:29:08Z</time>
      </trkpt>
      <trkpt lat="59.339596844646" lon="18.015261088242">
        <ele>73</ele>
        <time>2019-08-20T17:29:10Z</time>
      </trkpt>
      <trkpt lat="59.339724333345" lon="18.01501901897">
        <ele>72.6</ele>
        <time>2019-08-20T17:29:12Z</time>
      </trkpt>
      <trkpt lat="59.339854001338" lon="18.014755994948">
        <ele>72</ele>
        <time>2019-08-20T17:29:14Z</time>
      </trkpt>
      <trkpt lat="59.339915105389" lon="18.014630769362">
        <ele>71.6</ele>
        <time>2019-08-20T17:29:15Z</time>
      </trkpt>
      <trkpt lat="59.340058016784" lon="18.014209159792">
        <ele>71.2</ele>
        <time>2019-08-20T17:29:18Z</time>
      </trkpt>
      <trkpt lat="59.340177961773" lon="18.013537266688">
        <ele>71</ele>
        <time>2019-08-20T17:29:23Z</time>
      </trkpt>
      <trkpt lat="59.340256835452" lon="18.012961094882">
        <ele>71.4</ele>
        <time>2019-08-20T17:29:28Z</time>
      </trkpt>
      <trkpt lat="59.340310898707" lon="18.0128623561">
        <ele>72.4</ele>
        <time>2019-08-20T17:29:31Z</time>
      </trkpt>
      <trkpt lat="59.340407290557" lon="18.012857913693">
        <ele>73.2</ele>
        <time>2019-08-20T17:29:34Z</time>
      </trkpt>
      <trkpt lat="59.340493707946" lon="18.012892698578">
        <ele>74</ele>
        <time>2019-08-20T17:29:36Z</time>
      </trkpt>
      <trkpt lat="59.340542155328" lon="18.012917928097">
        <ele>74.4</ele>
        <time>2019-08-20T17:29:37Z</time>
      </trkpt>
      <trkpt lat="59.340846083022" lon="18.013050278298">
        <ele>73.4</ele>
        <time>2019-08-20T17:29:44Z</time>
      </trkpt>
      <trkpt lat="59.340912383851" lon="18.01306435989">
        <ele>72.6</ele>
        <time>2019-08-20T17:29:47Z</time>
      </trkpt>
      <trkpt lat="59.341046075156" lon="18.012751966477">
        <ele>72.6</ele>
        <time>2019-08-20T17:29:53Z</time>
      </trkpt>
      <trkpt lat="59.341173396217" lon="18.011827275269">
        <ele>73.6</ele>
        <time>2019-08-20T17:30:02Z</time>
      </trkpt>
      <trkpt lat="59.341291497188" lon="18.011310112039">
        <ele>73.8</ele>
        <time>2019-08-20T17:30:07Z</time>
      </trkpt>
      <trkpt lat="59.34151512628" lon="18.01076771929">
        <ele>72.2</ele>
        <time>2019-08-20T17:30:13Z</time>
      </trkpt>
      <trkpt lat="59.341555275581" lon="18.010697646606">
        <ele>72</ele>
        <time>2019-08-20T17:30:14Z</time>
      </trkpt>
      <trkpt lat="59.341656193657" lon="18.010583066033">
        <ele>71.6</ele>
        <time>2019-08-20T17:30:16Z</time>
      </trkpt>
      <trkpt lat="59.341709334903" lon="18.01053302609">
        <ele>71.2</ele>
        <time>2019-08-20T17:30:17Z</time>
      </trkpt>
      <trkpt lat="59.341819975983" lon="18.010437220973">
        <ele>70</ele>
        <time>2019-08-20T17:30:19Z</time>
      </trkpt>
      <trkpt lat="59.342153156508" lon="18.009919890105">
        <ele>70.8</ele>
        <time>2019-08-20T17:30:28Z</time>
      </trkpt>
      <trkpt lat="59.342236891689" lon="18.009858953692">
        <ele>70.8</ele>
        <time>2019-08-20T17:30:30Z</time>
      </trkpt>
      <trkpt lat="59.342788253071" lon="18.009543626614">
        <ele>69.6</ele>
        <time>2019-08-20T17:30:40Z</time>
      </trkpt>
      <trkpt lat="59.343208437718" lon="18.009370121284">
        <ele>69.6</ele>
        <time>2019-08-20T17:30:49Z</time>
      </trkpt>
      <trkpt lat="59.343268033027" lon="18.009179516878">
        <ele>69</ele>
        <time>2019-08-20T17:30:51Z</time>
      </trkpt>
      <trkpt lat="59.343299129876" lon="18.009053536921">
        <ele>68.6</ele>
        <time>2019-08-20T17:30:52Z</time>
      </trkpt>
      <trkpt lat="59.343482274391" lon="18.00844677118">
        <ele>67.6</ele>
        <time>2019-08-20T17:30:57Z</time>
      </trkpt>
      <trkpt lat="59.343887706894" lon="18.007672618896">
        <ele>67.2</ele>
        <time>2019-08-20T17:31:09Z</time>
      </trkpt>
      <trkpt lat="59.344417945888" lon="18.00739148997">
        <ele>68.4</ele>
        <time>2019-08-20T17:31:24Z</time>
      </trkpt>
      <trkpt lat="59.344447533995" lon="18.007368523564">
        <ele>68.4</ele>
        <time>2019-08-20T17:31:25Z</time>
      </trkpt>
      <trkpt lat="59.344513583367" lon="18.007334828326">
        <ele>68.6</ele>
        <time>2019-08-20T17:31:27Z</time>
      </trkpt>
      <trkpt lat="59.344672336553" lon="18.007360644578">
        <ele>68.8</ele>
        <time>2019-08-20T17:31:31Z</time>
      </trkpt>
      <trkpt lat="59.344783983461" lon="18.007385119726">
        <ele>68.8</ele>
        <time>2019-08-20T17:31:33Z</time>
      </trkpt>
      <trkpt lat="59.345304750908" lon="18.007756186439">
        <ele>68.8</ele>
        <time>2019-08-20T17:31:41Z</time>
      </trkpt>
      <trkpt lat="59.345656120156" lon="18.008044691437">
        <ele>69.6</ele>
        <time>2019-08-20T17:31:46Z</time>
      </trkpt>
      <trkpt lat="59.346206308072" lon="18.008454901623">
        <ele>70.4</ele>
        <time>2019-08-20T17:31:53Z</time>
      </trkpt>
      <trkpt lat="59.346281577534" lon="18.008514329294">
        <ele>70.6</ele>
        <time>2019-08-20T17:31:54Z</time>
      </trkpt>
      <trkpt lat="59.346849283621" lon="18.008949349904">
        <ele>70.4</ele>
        <time>2019-08-20T17:32:02Z</time>
      </trkpt>
      <trkpt lat="59.347381953366" lon="18.009308598138">
        <ele>71.6</ele>
        <time>2019-08-20T17:32:11Z</time>
      </trkpt>
      <trkpt lat="59.347435346069" lon="18.009318907875">
        <ele>71.6</ele>
        <time>2019-08-20T17:32:12Z</time>
      </trkpt>
      <trkpt lat="59.347491840075" lon="18.009324188472">
        <ele>71.8</ele>
        <time>2019-08-20T17:32:13Z</time>
      </trkpt>
      <trkpt lat="59.34802283344" lon="18.009092093661">
        <ele>73</ele>
        <time>2019-08-20T17:32:24Z</time>
      </trkpt>
      <trkpt lat="59.348139006574" lon="18.008963180039">
        <ele>74</ele>
        <time>2019-08-20T17:32:27Z</time>
      </trkpt>
      <trkpt lat="59.348433127445" lon="18.008500331521">
        <ele>74.6</ele>
        <time>2019-08-20T17:32:38Z</time>
      </trkpt>
      <trkpt lat="59.348596490676" lon="18.008757404394">
        <ele>74.8</ele>
        <time>2019-08-20T17:32:43Z</time>
      </trkpt>
      <trkpt lat="59.348688775395" lon="18.008925964403">
        <ele>75</ele>
        <time>2019-08-20T17:32:45Z</time>
      </trkpt>
      <trkpt lat="59.348730349619" lon="18.009266604819">
        <ele>76.2</ele>
        <time>2019-08-20T17:32:52Z</time>
      </trkpt>
      <trkpt lat="59.348863118915" lon="18.009964146537">
        <ele>76.6</ele>
        <time>2019-08-20T17:33:03Z</time>
      </trkpt>
      <trkpt lat="59.348963366439" lon="18.010357173828">
        <ele>77.4</ele>
        <time>2019-08-20T17:33:07Z</time>
      </trkpt>
      <trkpt lat="59.349025811594" lon="18.010629166483">
        <ele>77.8</ele>
        <time>2019-08-20T17:33:10Z</time>
      </trkpt>
      <trkpt lat="59.349085909817" lon="18.010815077025">
        <ele>77.8</ele>
        <time>2019-08-20T17:33:12Z</time>
      </trkpt>
      <trkpt lat="59.349149193162" lon="18.011162758237">
        <ele>77.6</ele>
        <time>2019-08-20T17:33:15Z</time>
      </trkpt>
      <trkpt lat="59.34921473962" lon="18.011351518625">
        <ele>77.6</ele>
        <time>2019-08-20T17:33:17Z</time>
      </trkpt>
      <trkpt lat="59.349487319008" lon="18.011882679628">
        <ele>78.4</ele>
        <time>2019-08-20T17:33:23Z</time>
      </trkpt>
      <trkpt lat="59.349649676411" lon="18.01209876501">
        <ele>79.4</ele>
        <time>2019-08-20T17:33:26Z</time>
      </trkpt>
      <trkpt lat="59.349708684987" lon="18.012148469677">
        <ele>79.6</ele>
        <time>2019-08-20T17:33:27Z</time>
      </trkpt>
      <trkpt lat="59.350065837746" lon="18.012295152927">
        <ele>80.8</ele>
        <time>2019-08-20T17:33:33Z</time>
      </trkpt>
      <trkpt lat="59.350364820119" lon="18.012227091899">
        <ele>82</ele>
        <time>2019-08-20T17:33:38Z</time>
      </trkpt>
      <trkpt lat="59.350423158143" lon="18.012196162688">
        <ele>82.4</ele>
        <time>2019-08-20T17:33:39Z</time>
      </trkpt>
      <trkpt lat="59.350601776432" lon="18.012072026749">
        <ele>83.2</ele>
        <time>2019-08-20T17:33:42Z</time>
      </trkpt>
      <trkpt lat="59.350759859066" lon="18.011917967427">
        <ele>84.4</ele>
        <time>2019-08-20T17:33:45Z</time>
      </trkpt>
      <trkpt lat="59.350923389935" lon="18.011788047977">
        <ele>85.6</ele>
        <time>2019-08-20T17:33:48Z</time>
      </trkpt>
      <trkpt lat="59.351034031015" lon="18.011681430209">
        <ele>85.8</ele>
        <time>2019-08-20T17:33:50Z</time>
      </trkpt>
      <trkpt lat="59.351235448072" lon="18.011400636559">
        <ele>86</ele>
        <time>2019-08-20T17:33:54Z</time>
      </trkpt>
      <trkpt lat="59.351351202111" lon="18.011302568329">
        <ele>86</ele>
        <time>2019-08-20T17:33:56Z</time>
      </trkpt>
      <trkpt lat="59.351479780457" lon="18.01125386949">
        <ele>86</ele>
        <time>2019-08-20T17:33:58Z</time>
      </trkpt>
      <trkpt lat="59.35175948446" lon="18.011221012442">
        <ele>84.4</ele>
        <time>2019-08-20T17:34:02Z</time>
      </trkpt>
      <trkpt lat="59.351912454135" lon="18.011197962217">
        <ele>83.6</ele>
        <time>2019-08-20T17:34:04Z</time>
      </trkpt>
      <trkpt lat="59.351994093841" lon="18.011198381312">
        <ele>83</ele>
        <time>2019-08-20T17:34:05Z</time>
      </trkpt>
      <trkpt lat="59.352076823194" lon="18.011209529239">
        <ele>82.8</ele>
        <time>2019-08-20T17:34:06Z</time>
      </trkpt>
      <trkpt lat="59.352612845699" lon="18.011324528907">
        <ele>82.8</ele>
        <time>2019-08-20T17:34:13Z</time>
      </trkpt>
      <trkpt lat="59.353185497107" lon="18.011510690906">
        <ele>84</ele>
        <time>2019-08-20T17:34:21Z</time>
      </trkpt>
      <trkpt lat="59.353253558135" lon="18.011506499956">
        <ele>84.4</ele>
        <time>2019-08-20T17:34:22Z</time>
      </trkpt>
      <trkpt lat="59.353379454273" lon="18.011427626277">
        <ele>84.6</ele>
        <time>2019-08-20T17:34:24Z</time>
      </trkpt>
      <trkpt lat="59.353460088151" lon="18.011270381833">
        <ele>84.8</ele>
        <time>2019-08-20T17:34:26Z</time>
      </trkpt>
      <trkpt lat="59.353557821105" lon="18.011099139616">
        <ele>85</ele>
        <time>2019-08-20T17:34:30Z</time>
      </trkpt>
      <trkpt lat="59.353839788221" lon="18.011649076075">
        <ele>85</ele>
        <time>2019-08-20T17:34:38Z</time>
      </trkpt>
      <trkpt lat="59.353862838446" lon="18.011837165911">
        <ele>84.8</ele>
        <time>2019-08-20T17:34:40Z</time>
      </trkpt>
      <trkpt lat="59.353743564009" lon="18.012082504124">
        <ele>84.2</ele>
        <time>2019-08-20T17:34:43Z</time>
      </trkpt>
      <trkpt lat="59.353722944535" lon="18.012232372496">
        <ele>83.2</ele>
        <time>2019-08-20T17:34:45Z</time>
      </trkpt>
      <trkpt lat="59.353769296442" lon="18.012395651908">
        <ele>82.6</ele>
        <time>2019-08-20T17:34:47Z</time>
      </trkpt>
      <trkpt lat="59.353810619209" lon="18.012474860863">
        <ele>82.2</ele>
        <time>2019-08-20T17:34:48Z</time>
      </trkpt>
      <trkpt lat="59.353899132073" lon="18.012655993722">
        <ele>81.2</ele>
        <time>2019-08-20T17:34:50Z</time>
      </trkpt>
      <trkpt lat="59.353950764577" lon="18.012700082516">
        <ele>80.8</ele>
        <time>2019-08-20T17:34:51Z</time>
      </trkpt>
      <trkpt lat="59.354010359886" lon="18.012703770552">
        <ele>80.4</ele>
        <time>2019-08-20T17:34:52Z</time>
      </trkpt>
      <trkpt lat="59.354205406699" lon="18.012653982066">
        <ele>80.2</ele>
        <time>2019-08-20T17:34:55Z</time>
      </trkpt>
      <trkpt lat="59.354286878767" lon="18.012707877683">
        <ele>80</ele>
        <time>2019-08-20T17:34:57Z</time>
      </trkpt>
      <trkpt lat="59.354322753299" lon="18.012755570694">
        <ele>79.8</ele>
        <time>2019-08-20T17:34:58Z</time>
      </trkpt>
      <trkpt lat="59.354363070238" lon="18.012785661715">
        <ele>79.2</ele>
        <time>2019-08-20T17:34:59Z</time>
      </trkpt>
      <trkpt lat="59.354396346381" lon="18.012852633096">
        <ele>78.6</ele>
        <time>2019-08-20T17:35:00Z</time>
      </trkpt>
      <trkpt lat="59.354459881183" lon="18.012856069675">
        <ele>78.2</ele>
        <time>2019-08-20T17:35:01Z</time>
      </trkpt>
      <trkpt lat="59.354585442045" lon="18.012778704738">
        <ele>77.4</ele>
        <time>2019-08-20T17:35:03Z</time>
      </trkpt>
      <trkpt lat="59.354906971729" lon="18.012539485312">
        <ele>76.2</ele>
        <time>2019-08-20T17:35:07Z</time>
      </trkpt>
      <trkpt lat="59.354998921172" lon="18.012501431486">
        <ele>75.8</ele>
        <time>2019-08-20T17:35:08Z</time>
      </trkpt>
      <trkpt lat="59.355168989923" lon="18.012425910567">
        <ele>75.6</ele>
        <time>2019-08-20T17:35:10Z</time>
      </trkpt>
      <trkpt lat="59.355305698712" lon="18.012276964204">
        <ele>75.4</ele>
        <time>2019-08-20T17:35:12Z</time>
      </trkpt>
      <trkpt lat="59.355403766942" lon="18.012049479438">
        <ele>75.4</ele>
        <time>2019-08-20T17:35:14Z</time>
      </trkpt>
      <trkpt lat="59.35546679883" lon="18.01184898439">
        <ele>75</ele>
        <time>2019-08-20T17:35:16Z</time>
      </trkpt>
      <trkpt lat="59.355568722734" lon="18.011595096639">
        <ele>74</ele>
        <time>2019-08-20T17:35:19Z</time>
      </trkpt>
      <trkpt lat="59.355637538133" lon="18.011467188845">
        <ele>73</ele>
        <time>2019-08-20T17:35:22Z</time>
      </trkpt>
      <trkpt lat="59.355674502312" lon="18.011501470816">
        <ele>72.8</ele>
        <time>2019-08-20T17:35:24Z</time>
      </trkpt>
      <trkpt lat="59.355440982578" lon="18.012548370126">
        <ele>72.2</ele>
        <time>2019-08-20T17:35:35Z</time>
      </trkpt>
      <trkpt lat="59.355206876111" lon="18.013635754013">
        <ele>72</ele>
        <time>2019-08-20T17:35:44Z</time>
      </trkpt>
      <trkpt lat="59.354968327237" lon="18.014537562634">
        <ele>73</ele>
        <time>2019-08-20T17:35:53Z</time>
      </trkpt>
      <trkpt lat="59.35492616628" lon="18.014614927571">
        <ele>73</ele>
        <time>2019-08-20T17:35:54Z</time>
      </trkpt>
      <trkpt lat="59.354817117761" lon="18.014835706817">
        <ele>74</ele>
        <time>2019-08-20T17:35:57Z</time>
      </trkpt>
      <trkpt lat="59.354686695397" lon="18.015299225887">
        <ele>73</ele>
        <time>2019-08-20T17:36:55Z</time>
      </trkpt>
      <trkpt lat="59.354693484736" lon="18.015320683551">
        <ele>72.8</ele>
        <time>2019-08-20T17:37:03Z</time>
      </trkpt>
      <trkpt lat="59.354712763106" lon="18.015354797884">
        <ele>73</ele>
        <time>2019-08-20T17:37:05Z</time>
      </trkpt>
      <trkpt lat="59.354891716671" lon="18.015643386701">
        <ele>73.8</ele>
        <time>2019-08-20T17:37:12Z</time>
      </trkpt>
      <trkpt lat="59.354957682224" lon="18.01575662617">
        <ele>74</ele>
        <time>2019-08-20T17:37:14Z</time>
      </trkpt>
      <trkpt lat="59.355125487862" lon="18.015833823469">
        <ele>74.2</ele>
        <time>2019-08-20T17:37:18Z</time>
      </trkpt>
      <trkpt lat="59.355612895347" lon="18.016389040525">
        <ele>75</ele>
        <time>2019-08-20T17:37:31Z</time>
      </trkpt>
      <trkpt lat="59.355661175091" lon="18.016406391058">
        <ele>75.2</ele>
        <time>2019-08-20T17:37:32Z</time>
      </trkpt>
      <trkpt lat="59.356032912356" lon="18.016570592479">
        <ele>76.6</ele>
        <time>2019-08-20T17:37:40Z</time>
      </trkpt>
      <trkpt lat="59.35663355931" lon="18.016791120268">
        <ele>77.2</ele>
        <time>2019-08-20T17:37:49Z</time>
      </trkpt>
      <trkpt lat="59.357163127752" lon="18.017028914771">
        <ele>76</ele>
        <time>2019-08-20T17:37:57Z</time>
      </trkpt>
      <trkpt lat="59.357724547414" lon="18.017211137277">
        <ele>76.4</ele>
        <time>2019-08-20T17:38:05Z</time>
      </trkpt>
      <trkpt lat="59.358105253312" lon="18.017348097523">
        <ele>77.6</ele>
        <time>2019-08-20T17:38:11Z</time>
      </trkpt>
      <trkpt lat="59.358544548691" lon="18.017386989539">
        <ele>78.6</ele>
        <time>2019-08-20T17:38:17Z</time>
      </trkpt>
      <trkpt lat="59.359173777924" lon="18.017422444976">
        <ele>78.8</ele>
        <time>2019-08-20T17:38:24Z</time>
      </trkpt>
      <trkpt lat="59.359571750536" lon="18.017438286767">
        <ele>79.6</ele>
        <time>2019-08-20T17:38:29Z</time>
      </trkpt>
      <trkpt lat="59.360061672591" lon="18.017417583474">
        <ele>80.8</ele>
        <time>2019-08-20T17:38:36Z</time>
      </trkpt>
      <trkpt lat="59.360573136129" lon="18.017355389776">
        <ele>81.8</ele>
        <time>2019-08-20T17:38:45Z</time>
      </trkpt>
      <trkpt lat="59.360731386401" lon="18.017341308184">
        <ele>82.8</ele>
        <time>2019-08-20T17:38:50Z</time>
      </trkpt>
      <trkpt lat="59.360854013598" lon="18.017342565469">
        <ele>84</ele>
        <time>2019-08-20T17:38:53Z</time>
      </trkpt>
      <trkpt lat="59.361093233024" lon="18.017314402285">
        <ele>85</ele>
        <time>2019-08-20T17:38:57Z</time>
      </trkpt>
      <trkpt lat="59.3612779701" lon="18.017262183048">
        <ele>86</ele>
        <time>2019-08-20T17:39:01Z</time>
      </trkpt>
      <trkpt lat="59.361416774364" lon="18.017169646872">
        <ele>87.4</ele>
        <time>2019-08-20T17:39:05Z</time>
      </trkpt>
      <trkpt lat="59.361510651644" lon="18.017079960542">
        <ele>88.4</ele>
        <time>2019-08-20T17:39:08Z</time>
      </trkpt>
      <trkpt lat="59.361608636055" lon="18.017021790156">
        <ele>89.6</ele>
        <time>2019-08-20T17:39:11Z</time>
      </trkpt>
      <trkpt lat="59.361729922148" lon="18.016962697761">
        <ele>90.8</ele>
        <time>2019-08-20T17:39:14Z</time>
      </trkpt>
      <trkpt lat="59.362022115182" lon="18.016765220197">
        <ele>90.8</ele>
        <time>2019-08-20T17:39:22Z</time>
      </trkpt>
      <trkpt lat="59.3623089438" lon="18.01641879627">
        <ele>89.6</ele>
        <time>2019-08-20T17:39:27Z</time>
      </trkpt>
      <trkpt lat="59.362867932711" lon="18.01610782778">
        <ele>88.8</ele>
        <time>2019-08-20T17:39:35Z</time>
      </trkpt>
      <trkpt lat="59.362938256852" lon="18.016069606316">
        <ele>88.6</ele>
        <time>2019-08-20T17:39:36Z</time>
      </trkpt>
      <trkpt lat="59.363131794923" lon="18.015949242232">
        <ele>87.4</ele>
        <time>2019-08-20T17:39:39Z</time>
      </trkpt>
      <trkpt lat="59.363275712146" lon="18.015873888951">
        <ele>87</ele>
        <time>2019-08-20T17:39:43Z</time>
      </trkpt>
      <trkpt lat="59.363364560286" lon="18.016077150026">
        <ele>87.2</ele>
        <time>2019-08-20T17:39:47Z</time>
      </trkpt>
      <trkpt lat="59.363516607952" lon="18.016212182435">
        <ele>87.4</ele>
        <time>2019-08-20T17:39:51Z</time>
      </trkpt>
      <trkpt lat="59.363606042825" lon="18.016362972816">
        <ele>87.4</ele>
        <time>2019-08-20T17:39:53Z</time>
      </trkpt>
      <trkpt lat="59.363637977864" lon="18.016612585798">
        <ele>86</ele>
        <time>2019-08-20T17:39:56Z</time>
      </trkpt>
      <trkpt lat="59.363666141048" lon="18.016727836923">
        <ele>84.8</ele>
        <time>2019-08-20T17:39:58Z</time>
      </trkpt>
      <trkpt lat="59.363760605061" lon="18.016863204608">
        <ele>84.2</ele>
        <time>2019-08-20T17:40:01Z</time>
      </trkpt>
      <trkpt lat="59.363894715461" lon="18.016694225504">
        <ele>84</ele>
        <time>2019-08-20T17:40:04Z</time>
      </trkpt>
      <trkpt lat="59.363989850026" lon="18.016597833654">
        <ele>83.8</ele>
        <time>2019-08-20T17:40:06Z</time>
      </trkpt>
      <trkpt lat="59.364038800322" lon="18.016534801766">
        <ele>83.6</ele>
        <time>2019-08-20T17:40:07Z</time>
      </trkpt>
      <trkpt lat="59.364077943795" lon="18.016465148177">
        <ele>83.4</ele>
        <time>2019-08-20T17:40:08Z</time>
      </trkpt>
      <trkpt lat="59.364127732281" lon="18.016291642847">
        <ele>83.2</ele>
        <time>2019-08-20T17:40:10Z</time>
      </trkpt>
      <trkpt lat="59.364195458033" lon="18.015972627733">
        <ele>82.6</ele>
        <time>2019-08-20T17:40:13Z</time>
      </trkpt>
      <trkpt lat="59.364291179331" lon="18.015515562726">
        <ele>82</ele>
        <time>2019-08-20T17:40:17Z</time>
      </trkpt>
      <trkpt lat="59.364329736071" lon="18.015301991914">
        <ele>81.6</ele>
        <time>2019-08-20T17:40:19Z</time>
      </trkpt>
      <trkpt lat="59.364296711385" lon="18.014845178364">
        <ele>80.6</ele>
        <time>2019-08-20T17:40:23Z</time>
      </trkpt>
      <trkpt lat="59.364337698876" lon="18.014659351641">
        <ele>80</ele>
        <time>2019-08-20T17:40:25Z</time>
      </trkpt>
      <trkpt lat="59.364425289731" lon="18.014642587841">
        <ele>79.2</ele>
        <time>2019-08-20T17:40:27Z</time>
      </trkpt>
      <trkpt lat="59.364679931853" lon="18.014750965808">
        <ele>78.2</ele>
        <time>2019-08-20T17:40:31Z</time>
      </trkpt>
      <trkpt lat="59.364734581841" lon="18.014799999923">
        <ele>77.6</ele>
        <time>2019-08-20T17:40:32Z</time>
      </trkpt>
      <trkpt lat="59.364832314795" lon="18.014880549982">
        <ele>77</ele>
        <time>2019-08-20T17:40:34Z</time>
      </trkpt>
      <trkpt lat="59.364881935643" lon="18.014936205798">
        <ele>76.6</ele>
        <time>2019-08-20T17:40:35Z</time>
      </trkpt>
      <trkpt lat="59.364984781556" lon="18.015005021197">
        <ele>76.4</ele>
        <time>2019-08-20T17:40:37Z</time>
      </trkpt>
      <trkpt lat="59.365094416808" lon="18.014956825272">
        <ele>76.2</ele>
        <time>2019-08-20T17:40:39Z</time>
      </trkpt>
      <trkpt lat="59.36521327215" lon="18.014861187793">
        <ele>76.6</ele>
        <time>2019-08-20T17:40:41Z</time>
      </trkpt>
      <trkpt lat="59.365671929718" lon="18.014195497295">
        <ele>76.8</ele>
        <time>2019-08-20T17:40:50Z</time>
      </trkpt>
      <trkpt lat="59.366175346632" lon="18.01356559751">
        <ele>77.6</ele>
        <time>2019-08-20T17:40:59Z</time>
      </trkpt>
      <trkpt lat="59.366660491004" lon="18.012863026652">
        <ele>76.2</ele>
        <time>2019-08-20T17:41:08Z</time>
      </trkpt>
      <trkpt lat="59.36693239984" lon="18.012453654656">
        <ele>78</ele>
        <time>2019-08-20T17:41:13Z</time>
      </trkpt>
      <trkpt lat="59.367028288776" lon="18.012274701091">
        <ele>77.8</ele>
        <time>2019-08-20T17:41:15Z</time>
      </trkpt>
      <trkpt lat="59.367127027558" lon="18.01210966148">
        <ele>76.8</ele>
        <time>2019-08-20T17:41:17Z</time>
      </trkpt>
      <trkpt lat="59.3673045562" lon="18.011926516965">
        <ele>76</ele>
        <time>2019-08-20T17:41:20Z</time>
      </trkpt>
      <trkpt lat="59.367482755394" lon="18.011665588418">
        <ele>75.8</ele>
        <time>2019-08-20T17:41:23Z</time>
      </trkpt>
      <trkpt lat="59.367650477213" lon="18.01142486025">
        <ele>74.4</ele>
        <time>2019-08-20T17:41:26Z</time>
      </trkpt>
      <trkpt lat="59.367742510475" lon="18.01131086641">
        <ele>73</ele>
        <time>2019-08-20T17:41:28Z</time>
      </trkpt>
      <trkpt lat="59.367835381927" lon="18.011213384913">
        <ele>71.8</ele>
        <time>2019-08-20T17:41:30Z</time>
      </trkpt>
      <trkpt lat="59.367951890337" lon="18.011131829026">
        <ele>70.6</ele>
        <time>2019-08-20T17:41:33Z</time>
      </trkpt>
      <trkpt lat="59.368020621917" lon="18.011158567287">
        <ele>70</ele>
        <time>2019-08-20T17:41:35Z</time>
      </trkpt>
      <trkpt lat="59.368067895833" lon="18.011254120947">
        <ele>69.6</ele>
        <time>2019-08-20T17:41:37Z</time>
      </trkpt>
      <trkpt lat="59.368255985669" lon="18.010824548572">
        <ele>70.4</ele>
        <time>2019-08-20T17:41:43Z</time>
      </trkpt>
      <trkpt lat="59.368301499386" lon="18.010657413486">
        <ele>70.8</ele>
        <time>2019-08-20T17:41:45Z</time>
      </trkpt>
      <trkpt lat="59.36832211886" lon="18.010547945872">
        <ele>70.8</ele>
        <time>2019-08-20T17:41:46Z</time>
      </trkpt>
      <trkpt lat="59.368378696685" lon="18.010357257647">
        <ele>71.4</ele>
        <time>2019-08-20T17:41:48Z</time>
      </trkpt>
      <trkpt lat="59.368416750511" lon="18.010272935733">
        <ele>71.8</ele>
        <time>2019-08-20T17:41:49Z</time>
      </trkpt>
      <trkpt lat="59.368449356102" lon="18.010176962978">
        <ele>72</ele>
        <time>2019-08-20T17:41:50Z</time>
      </trkpt>
      <trkpt lat="59.368512136533" lon="18.009806399179">
        <ele>72.4</ele>
        <time>2019-08-20T17:41:53Z</time>
      </trkpt>
      <trkpt lat="59.368702154206" lon="18.009331564544">
        <ele>73</ele>
        <time>2019-08-20T17:41:57Z</time>
      </trkpt>
      <trkpt lat="59.368952186283" lon="18.008935352131">
        <ele>72.8</ele>
        <time>2019-08-20T17:42:01Z</time>
      </trkpt>
      <trkpt lat="59.369328198317" lon="18.00867894981">
        <ele>71.8</ele>
        <time>2019-08-20T17:42:06Z</time>
      </trkpt>
      <trkpt lat="59.369885678486" lon="18.008443250782">
        <ele>71</ele>
        <time>2019-08-20T17:42:13Z</time>
      </trkpt>
      <trkpt lat="59.370041162731" lon="18.008384326025">
        <ele>70.6</ele>
        <time>2019-08-20T17:42:15Z</time>
      </trkpt>
      <trkpt lat="59.37030360002" lon="18.008288520908">
        <ele>69.6</ele>
        <time>2019-08-20T17:42:18Z</time>
      </trkpt>
      <trkpt lat="59.370905168983" lon="18.008001189376">
        <ele>68.8</ele>
        <time>2019-08-20T17:42:25Z</time>
      </trkpt>
      <trkpt lat="59.37135636666" lon="18.007923572982">
        <ele>70.8</ele>
        <time>2019-08-20T17:42:30Z</time>
      </trkpt>
      <trkpt lat="59.371941842375" lon="18.0076152867">
        <ele>69.8</ele>
        <time>2019-08-20T17:42:37Z</time>
      </trkpt>
      <trkpt lat="59.372015184" lon="18.00757421539">
        <ele>69.6</ele>
        <time>2019-08-20T17:42:38Z</time>
      </trkpt>
      <trkpt lat="59.372160107051" lon="18.007524678361">
        <ele>69.4</ele>
        <time>2019-08-20T17:42:40Z</time>
      </trkpt>
      <trkpt lat="59.372312322355" lon="18.007514536262">
        <ele>69.2</ele>
        <time>2019-08-20T17:42:42Z</time>
      </trkpt>
      <trkpt lat="59.372463196555" lon="18.007438344791">
        <ele>68.6</ele>
        <time>2019-08-20T17:42:44Z</time>
      </trkpt>
      <trkpt lat="59.373032076108" lon="18.006935263153">
        <ele>68.2</ele>
        <time>2019-08-20T17:42:51Z</time>
      </trkpt>
      <trkpt lat="59.373520489421" lon="18.006328413593">
        <ele>67.8</ele>
        <time>2019-08-20T17:42:57Z</time>
      </trkpt>
      <trkpt lat="59.374099846349" lon="18.005893225345">
        <ele>67.6</ele>
        <time>2019-08-20T17:43:04Z</time>
      </trkpt>
      <trkpt lat="59.374176624553" lon="18.005834635864">
        <ele>67.6</ele>
        <time>2019-08-20T17:43:05Z</time>
      </trkpt>
      <trkpt lat="59.374695045068" lon="18.005430795922">
        <ele>67.6</ele>
        <time>2019-08-20T17:43:12Z</time>
      </trkpt>
      <trkpt lat="59.375180692354" lon="18.005056879363">
        <ele>68.6</ele>
        <time>2019-08-20T17:43:19Z</time>
      </trkpt>
      <trkpt lat="59.375735657953" lon="18.004624708599">
        <ele>69.4</ele>
        <time>2019-08-20T17:43:28Z</time>
      </trkpt>
      <trkpt lat="59.375792738692" lon="18.004585397488">
        <ele>69.8</ele>
        <time>2019-08-20T17:43:29Z</time>
      </trkpt>
      <trkpt lat="59.376204206163" lon="18.00432287638">
        <ele>70.8</ele>
        <time>2019-08-20T17:43:36Z</time>
      </trkpt>
      <trkpt lat="59.376630928692" lon="18.004076113244">
        <ele>71.8</ele>
        <time>2019-08-20T17:43:43Z</time>
      </trkpt>
      <trkpt lat="59.376691781286" lon="18.004040490169">
        <ele>72</ele>
        <time>2019-08-20T17:43:44Z</time>
      </trkpt>
      <trkpt lat="59.376973832221" lon="18.003897494955">
        <ele>73</ele>
        <time>2019-08-20T17:43:49Z</time>
      </trkpt>
      <trkpt lat="59.377198383322" lon="18.003763384555">
        <ele>73.8</ele>
        <time>2019-08-20T17:43:53Z</time>
      </trkpt>
      <trkpt lat="59.377249177636" lon="18.003727593842">
        <ele>74.2</ele>
        <time>2019-08-20T17:43:54Z</time>
      </trkpt>
      <trkpt lat="59.377423604975" lon="18.003513687754">
        <ele>75.2</ele>
        <time>2019-08-20T17:43:58Z</time>
      </trkpt>
      <trkpt lat="59.377469370149" lon="18.003479741059">
        <ele>75.2</ele>
        <time>2019-08-20T17:43:59Z</time>
      </trkpt>
      <trkpt lat="59.377515135323" lon="18.003454176264">
        <ele>75.6</ele>
        <time>2019-08-20T17:44:00Z</time>
      </trkpt>
      <trkpt lat="59.377719402226" lon="18.003390641462">
        <ele>76.4</ele>
        <time>2019-08-20T17:44:04Z</time>
      </trkpt>
      <trkpt lat="59.377812273678" lon="18.003304140254">
        <ele>76.8</ele>
        <time>2019-08-20T17:44:06Z</time>
      </trkpt>
      <trkpt lat="59.377991562519" lon="18.003002643311">
        <ele>77.4</ele>
        <time>2019-08-20T17:44:10Z</time>
      </trkpt>
      <trkpt lat="59.378553652733" lon="18.002592600763">
        <ele>78.2</ele>
        <time>2019-08-20T17:44:20Z</time>
      </trkpt>
      <trkpt lat="59.379095961663" lon="18.002178115808">
        <ele>77.4</ele>
        <time>2019-08-20T17:44:28Z</time>
      </trkpt>
      <trkpt lat="59.379556882344" lon="18.00182926113">
        <ele>76.2</ele>
        <time>2019-08-20T17:44:34Z</time>
      </trkpt>
      <trkpt lat="59.380087037519" lon="18.001461379539">
        <ele>75.6</ele>
        <time>2019-08-20T17:44:41Z</time>
      </trkpt>
      <trkpt lat="59.380248053818" lon="18.001428354853">
        <ele>75.6</ele>
        <time>2019-08-20T17:44:43Z</time>
      </trkpt>
      <trkpt lat="59.380588023682" lon="18.001509743102">
        <ele>75.2</ele>
        <time>2019-08-20T17:44:47Z</time>
      </trkpt>
      <trkpt lat="59.380821040502" lon="18.001591382808">
        <ele>74</ele>
        <time>2019-08-20T17:44:50Z</time>
      </trkpt>
      <trkpt lat="59.381070485846" lon="18.001631699747">
        <ele>72.6</ele>
        <time>2019-08-20T17:44:54Z</time>
      </trkpt>
      <trkpt lat="59.381164949859" lon="18.001653995601">
        <ele>71.4</ele>
        <time>2019-08-20T17:44:56Z</time>
      </trkpt>
      <trkpt lat="59.381250948153" lon="18.00164905028">
        <ele>71</ele>
        <time>2019-08-20T17:44:58Z</time>
      </trkpt>
      <trkpt lat="59.381377011929" lon="18.001554670086">
        <ele>70.4</ele>
        <time>2019-08-20T17:45:01Z</time>
      </trkpt>
      <trkpt lat="59.381562419557" lon="18.00129030496">
        <ele>70</ele>
        <time>2019-08-20T17:45:05Z</time>
      </trkpt>
      <trkpt lat="59.38204664192" lon="18.000569126284">
        <ele>71</ele>
        <time>2019-08-20T17:45:13Z</time>
      </trkpt>
      <trkpt lat="59.382111517826" lon="18.000491174614">
        <ele>71</ele>
        <time>2019-08-20T17:45:14Z</time>
      </trkpt>
      <trkpt lat="59.382511921189" lon="18.000016591436">
        <ele>71.4</ele>
        <time>2019-08-20T17:45:20Z</time>
      </trkpt>
      <trkpt lat="59.382772933555" lon="17.999651727329">
        <ele>71.8</ele>
        <time>2019-08-20T17:45:24Z</time>
      </trkpt>
      <trkpt lat="59.382856417279" lon="17.999411669713">
        <ele>71.8</ele>
        <time>2019-08-20T17:45:26Z</time>
      </trkpt>
      <trkpt lat="59.382959598468" lon="17.999035657679">
        <ele>72.2</ele>
        <time>2019-08-20T17:45:29Z</time>
      </trkpt>
      <trkpt lat="59.383058923983" lon="17.99880423342">
        <ele>72.4</ele>
        <time>2019-08-20T17:45:31Z</time>
      </trkpt>
      <trkpt lat="59.383115920903" lon="17.9987137089">
        <ele>72.6</ele>
        <time>2019-08-20T17:45:32Z</time>
      </trkpt>
      <trkpt lat="59.383597125782" lon="17.998148685021">
        <ele>72.2</ele>
        <time>2019-08-20T17:45:40Z</time>
      </trkpt>
      <trkpt lat="59.383652697779" lon="17.998075511034">
        <ele>72</ele>
        <time>2019-08-20T17:45:41Z</time>
      </trkpt>
      <trkpt lat="59.383776414623" lon="17.99796436704">
        <ele>72.4</ele>
        <time>2019-08-20T17:45:43Z</time>
      </trkpt>
      <trkpt lat="59.383910273566" lon="17.997945256308">
        <ele>72.8</ele>
        <time>2019-08-20T17:45:45Z</time>
      </trkpt>
      <trkpt lat="59.384107332035" lon="17.997965624325">
        <ele>73.6</ele>
        <time>2019-08-20T17:45:48Z</time>
      </trkpt>
      <trkpt lat="59.384682078918" lon="17.99795011781">
        <ele>74.2</ele>
        <time>2019-08-20T17:45:57Z</time>
      </trkpt>
      <trkpt lat="59.385232015377" lon="17.997914997649">
        <ele>74.2</ele>
        <time>2019-08-20T17:46:06Z</time>
      </trkpt>
      <trkpt lat="59.385343410828" lon="17.997912063984">
        <ele>74.8</ele>
        <time>2019-08-20T17:46:08Z</time>
      </trkpt>
      <trkpt lat="59.385563100427" lon="17.997881972963">
        <ele>75.8</ele>
        <time>2019-08-20T17:46:12Z</time>
      </trkpt>
      <trkpt lat="59.386107588651" lon="17.997843248585">
        <ele>76.4</ele>
        <time>2019-08-20T17:46:22Z</time>
      </trkpt>
      <trkpt lat="59.386262067068" lon="17.997846768983">
        <ele>77</ele>
        <time>2019-08-20T17:46:25Z</time>
      </trkpt>
      <trkpt lat="59.386513188792" lon="17.997827239156">
        <ele>78.2</ele>
        <time>2019-08-20T17:46:30Z</time>
      </trkpt>
      <trkpt lat="59.387007469435" lon="17.997798992153">
        <ele>79.2</ele>
        <time>2019-08-20T17:46:40Z</time>
      </trkpt>
      <trkpt lat="59.387139316722" lon="17.997796645221">
        <ele>79.8</ele>
        <time>2019-08-20T17:46:43Z</time>
      </trkpt>
      <trkpt lat="59.387215843469" lon="17.997847607173">
        <ele>80.4</ele>
        <time>2019-08-20T17:46:45Z</time>
      </trkpt>
      <trkpt lat="59.387271164009" lon="17.997977945718">
        <ele>81.8</ele>
        <time>2019-08-20T17:46:48Z</time>
      </trkpt>
      <trkpt lat="59.387331262232" lon="17.998199646973">
        <ele>82.4</ele>
        <time>2019-08-20T17:46:51Z</time>
      </trkpt>
      <trkpt lat="59.38735741376" lon="17.99839016756">
        <ele>82.8</ele>
        <time>2019-08-20T17:46:53Z</time>
      </trkpt>
      <trkpt lat="59.387367974954" lon="17.998496869147">
        <ele>83</ele>
        <time>2019-08-20T17:46:54Z</time>
      </trkpt>
      <trkpt lat="59.387402256925" lon="17.998716139651">
        <ele>82.8</ele>
        <time>2019-08-20T17:46:56Z</time>
      </trkpt>
      <trkpt lat="59.387458667112" lon="17.998919316907">
        <ele>82.4</ele>
        <time>2019-08-20T17:46:58Z</time>
      </trkpt>
      <trkpt lat="59.387508120322" lon="17.999141018162">
        <ele>81.4</ele>
        <time>2019-08-20T17:47:00Z</time>
      </trkpt>
      <trkpt lat="59.387600572679" lon="17.99919231539">
        <ele>81</ele>
        <time>2019-08-20T17:47:02Z</time>
      </trkpt>
      <trkpt lat="59.387691348656" lon="17.999150573528">
        <ele>80.6</ele>
        <time>2019-08-20T17:47:04Z</time>
      </trkpt>
      <trkpt lat="59.388021092602" lon="17.998767269241">
        <ele>82.8</ele>
        <time>2019-08-20T17:47:12Z</time>
      </trkpt>
      <trkpt lat="59.388221000917" lon="17.998443727901">
        <ele>83.4</ele>
        <time>2019-08-20T17:47:17Z</time>
      </trkpt>
      <trkpt lat="59.388577734581" lon="17.998100824372">
        <ele>82</ele>
        <time>2019-08-20T17:47:22Z</time>
      </trkpt>
      <trkpt lat="59.388650405654" lon="17.997978951546">
        <ele>81.6</ele>
        <time>2019-08-20T17:47:23Z</time>
      </trkpt>
      <trkpt lat="59.388831035599" lon="17.997737133731">
        <ele>80.2</ele>
        <time>2019-08-20T17:47:25Z</time>
      </trkpt>
      <trkpt lat="59.389070422663" lon="17.99740026517">
        <ele>78.8</ele>
        <time>2019-08-20T17:47:28Z</time>
      </trkpt>
      <trkpt lat="59.389401256256" lon="17.996917048635">
        <ele>77.6</ele>
        <time>2019-08-20T17:47:32Z</time>
      </trkpt>
      <trkpt lat="59.389605187883" lon="17.996636422623">
        <ele>76.2</ele>
        <time>2019-08-20T17:47:34Z</time>
      </trkpt>
      <trkpt lat="59.389703759027" lon="17.996498708006">
        <ele>75.4</ele>
        <time>2019-08-20T17:47:35Z</time>
      </trkpt>
      <trkpt lat="59.389805682931" lon="17.996339368087">
        <ele>74.6</ele>
        <time>2019-08-20T17:47:36Z</time>
      </trkpt>
      <trkpt lat="59.389873492502" lon="17.9961739932">
        <ele>73.6</ele>
        <time>2019-08-20T17:47:37Z</time>
      </trkpt>
      <trkpt lat="59.389959826072" lon="17.995992357427">
        <ele>73.2</ele>
        <time>2019-08-20T17:47:38Z</time>
      </trkpt>
      <trkpt lat="59.390320163953" lon="17.995033970981">
        <ele>73</ele>
        <time>2019-08-20T17:47:44Z</time>
      </trkpt>
      <trkpt lat="59.390647728605" lon="17.994109363592">
        <ele>73</ele>
        <time>2019-08-20T17:47:51Z</time>
      </trkpt>
      <trkpt lat="59.390970096479" lon="17.993161789797">
        <ele>73</ele>
        <time>2019-08-20T17:47:59Z</time>
      </trkpt>
      <trkpt lat="59.391276203467" lon="17.992244223204">
        <ele>73.6</ele>
        <time>2019-08-20T17:48:08Z</time>
      </trkpt>
      <trkpt lat="59.391596559685" lon="17.991376528916">
        <ele>74.2</ele>
        <time>2019-08-20T17:48:17Z</time>
      </trkpt>
      <trkpt lat="59.391630171104" lon="17.991276700487">
        <ele>74.4</ele>
        <time>2019-08-20T17:48:18Z</time>
      </trkpt>
      <trkpt lat="59.391947090743" lon="17.990290989047">
        <ele>75.4</ele>
        <time>2019-08-20T17:48:28Z</time>
      </trkpt>
      <trkpt lat="59.392005931681" lon="17.990100300822">
        <ele>75.6</ele>
        <time>2019-08-20T17:48:30Z</time>
      </trkpt>
      <trkpt lat="59.392147921067" lon="17.989536785685">
        <ele>76.4</ele>
        <time>2019-08-20T17:48:36Z</time>
      </trkpt>
      <trkpt lat="59.39217784445" lon="17.989354982274">
        <ele>76.6</ele>
        <time>2019-08-20T17:48:38Z</time>
      </trkpt>
      <trkpt lat="59.392269961531" lon="17.988891295566">
        <ele>77.6</ele>
        <time>2019-08-20T17:48:43Z</time>
      </trkpt>
      <trkpt lat="59.392425529595" lon="17.988434649654">
        <ele>78</ele>
        <time>2019-08-20T17:48:49Z</time>
      </trkpt>
      <trkpt lat="59.392646979393" lon="17.987957048992">
        <ele>78.8</ele>
        <time>2019-08-20T17:48:56Z</time>
      </trkpt>
      <trkpt lat="59.393112929214" lon="17.987444328169">
        <ele>79.8</ele>
        <time>2019-08-20T17:49:05Z</time>
      </trkpt>
      <trkpt lat="59.393631349729" lon="17.987130006919">
        <ele>80</ele>
        <time>2019-08-20T17:49:14Z</time>
      </trkpt>
      <trkpt lat="59.394020940441" lon="17.98679967624">
        <ele>80.8</ele>
        <time>2019-08-20T17:49:21Z</time>
      </trkpt>
      <trkpt lat="59.394071231841" lon="17.986681239993">
        <ele>80.8</ele>
        <time>2019-08-20T17:49:22Z</time>
      </trkpt>
      <trkpt lat="59.394139544326" lon="17.986736057619">
        <ele>81</ele>
        <time>2019-08-20T17:49:23Z</time>
      </trkpt>
      <trkpt lat="59.394301231177" lon="17.986769082305">
        <ele>81.4</ele>
        <time>2019-08-20T17:49:26Z</time>
      </trkpt>
      <trkpt lat="59.394448668798" lon="17.986683670744">
        <ele>82</ele>
        <time>2019-08-20T17:49:29Z</time>
      </trkpt>
      <trkpt lat="59.395006065148" lon="17.986314196592">
        <ele>82.4</ele>
        <time>2019-08-20T17:49:39Z</time>
      </trkpt>
      <trkpt lat="59.395455586445" lon="17.986066846723">
        <ele>83</ele>
        <time>2019-08-20T17:49:47Z</time>
      </trkpt>
      <trkpt lat="59.396016251736" lon="17.985651942673">
        <ele>83.8</ele>
        <time>2019-08-20T17:49:57Z</time>
      </trkpt>
      <trkpt lat="59.396135358535" lon="17.985535434263">
        <ele>84</ele>
        <time>2019-08-20T17:49:59Z</time>
      </trkpt>
      <trkpt lat="59.396623688029" lon="17.985048529692">
        <ele>83.8</ele>
        <time>2019-08-20T17:50:07Z</time>
      </trkpt>
      <trkpt lat="59.397138755784" lon="17.984504879658">
        <ele>84</ele>
        <time>2019-08-20T17:50:16Z</time>
      </trkpt>
      <trkpt lat="59.397647704752" lon="17.984000037821">
        <ele>84.4</ele>
        <time>2019-08-20T17:50:25Z</time>
      </trkpt>
      <trkpt lat="59.398135112237" lon="17.98336477362">
        <ele>84.6</ele>
        <time>2019-08-20T17:50:35Z</time>
      </trkpt>
      <trkpt lat="59.398309036662" lon="17.983093283879">
        <ele>85.2</ele>
        <time>2019-08-20T17:50:39Z</time>
      </trkpt>
      <trkpt lat="59.398410792928" lon="17.982970908139">
        <ele>85.2</ele>
        <time>2019-08-20T17:50:41Z</time>
      </trkpt>
      <trkpt lat="59.398914126023" lon="17.982395155428">
        <ele>84.6</ele>
        <time>2019-08-20T17:50:51Z</time>
      </trkpt>
      <trkpt lat="59.399109172836" lon="17.982120480565">
        <ele>85.2</ele>
        <time>2019-08-20T17:50:55Z</time>
      </trkpt>
      <trkpt lat="59.399498344453" lon="17.981313471233">
        <ele>85.6</ele>
        <time>2019-08-20T17:51:04Z</time>
      </trkpt>
      <trkpt lat="59.399629772645" lon="17.981036197981">
        <ele>86.4</ele>
        <time>2019-08-20T17:51:07Z</time>
      </trkpt>
      <trkpt lat="59.39973328911" lon="17.980730090993">
        <ele>87.8</ele>
        <time>2019-08-20T17:51:10Z</time>
      </trkpt>
      <trkpt lat="59.400114330284" lon="17.979869772777">
        <ele>88.4</ele>
        <time>2019-08-20T17:51:19Z</time>
      </trkpt>
      <trkpt lat="59.400283393207" lon="17.979541956668">
        <ele>89</ele>
        <time>2019-08-20T17:51:22Z</time>
      </trkpt>
      <trkpt lat="59.400423622394" lon="17.979248506349">
        <ele>90.2</ele>
        <time>2019-08-20T17:51:25Z</time>
      </trkpt>
      <trkpt lat="59.400811788183" lon="17.978380141509">
        <ele>90.6</ele>
        <time>2019-08-20T17:51:34Z</time>
      </trkpt>
      <trkpt lat="59.401178831584" lon="17.977544549898">
        <ele>91</ele>
        <time>2019-08-20T17:51:43Z</time>
      </trkpt>
      <trkpt lat="59.401350911991" lon="17.97721832635">
        <ele>91.2</ele>
        <time>2019-08-20T17:51:47Z</time>
      </trkpt>
      <trkpt lat="59.401745531843" lon="17.976404192403">
        <ele>91.2</ele>
        <time>2019-08-20T17:51:56Z</time>
      </trkpt>
      <trkpt lat="59.402239644848" lon="17.975360142939">
        <ele>91.8</ele>
        <time>2019-08-20T17:52:08Z</time>
      </trkpt>
      <trkpt lat="59.402550864795" lon="17.974703253436">
        <ele>92.4</ele>
        <time>2019-08-20T17:52:16Z</time>
      </trkpt>
      <trkpt lat="59.402895528523" lon="17.973990121384">
        <ele>93.4</ele>
        <time>2019-08-20T17:52:25Z</time>
      </trkpt>
      <trkpt lat="59.403008684173" lon="17.973950307359">
        <ele>93.2</ele>
        <time>2019-08-20T17:52:27Z</time>
      </trkpt>
      <trkpt lat="59.403143968039" lon="17.97401895512">
        <ele>93</ele>
        <time>2019-08-20T17:52:29Z</time>
      </trkpt>
      <trkpt lat="59.403495169649" lon="17.974380298829">
        <ele>91.8</ele>
        <time>2019-08-20T17:52:35Z</time>
      </trkpt>
      <trkpt lat="59.404033455267" lon="17.974710210413">
        <ele>92.4</ele>
        <time>2019-08-20T17:52:44Z</time>
      </trkpt>
      <trkpt lat="59.404310896157" lon="17.974965690725">
        <ele>92.4</ele>
        <time>2019-08-20T17:52:48Z</time>
      </trkpt>
      <trkpt lat="59.40444056415" lon="17.975145985394">
        <ele>91.2</ele>
        <time>2019-08-20T17:52:50Z</time>
      </trkpt>
      <trkpt lat="59.404495297957" lon="17.975250423868">
        <ele>90.8</ele>
        <time>2019-08-20T17:52:51Z</time>
      </trkpt>
      <trkpt lat="59.404862676634" lon="17.976055505363">
        <ele>91</ele>
        <time>2019-08-20T17:52:58Z</time>
      </trkpt>
      <trkpt lat="59.405085048441" lon="17.976535955871">
        <ele>92</ele>
        <time>2019-08-20T17:53:03Z</time>
      </trkpt>
      <trkpt lat="59.405181859386" lon="17.976641819268">
        <ele>92.2</ele>
        <time>2019-08-20T17:53:05Z</time>
      </trkpt>
      <trkpt lat="59.405331057206" lon="17.976751286882">
        <ele>92.4</ele>
        <time>2019-08-20T17:53:08Z</time>
      </trkpt>
      <trkpt lat="59.405471873126" lon="17.976940969279">
        <ele>92.4</ele>
        <time>2019-08-20T17:53:11Z</time>
      </trkpt>
      <trkpt lat="59.405582765663" lon="17.976961672572">
        <ele>92.4</ele>
        <time>2019-08-20T17:53:13Z</time>
      </trkpt>
      <trkpt lat="59.405694747847" lon="17.976854887166">
        <ele>92</ele>
        <time>2019-08-20T17:53:15Z</time>
      </trkpt>
      <trkpt lat="59.405795665923" lon="17.976694122324">
        <ele>91.4</ele>
        <time>2019-08-20T17:53:17Z</time>
      </trkpt>
      <trkpt lat="59.405839419441" lon="17.976604603632">
        <ele>91.2</ele>
        <time>2019-08-20T17:53:18Z</time>
      </trkpt>
      <trkpt lat="59.406142341307" lon="17.976060450684">
        <ele>92.2</ele>
        <time>2019-08-20T17:53:25Z</time>
      </trkpt>
      <trkpt lat="59.406223897194" lon="17.9759317047">
        <ele>93.2</ele>
        <time>2019-08-20T17:53:27Z</time>
      </trkpt>
      <trkpt lat="59.406300423941" lon="17.975813687548">
        <ele>93.8</ele>
        <time>2019-08-20T17:53:29Z</time>
      </trkpt>
      <trkpt lat="59.406341076156" lon="17.975773538247">
        <ele>94.2</ele>
        <time>2019-08-20T17:53:30Z</time>
      </trkpt>
      <trkpt lat="59.406507205414" lon="17.975616712898">
        <ele>95.2</ele>
        <time>2019-08-20T17:53:34Z</time>
      </trkpt>
      <trkpt lat="59.406629832611" lon="17.975456618608">
        <ele>96.6</ele>
        <time>2019-08-20T17:53:37Z</time>
      </trkpt>
      <trkpt lat="59.406733516714" lon="17.975317730525">
        <ele>97.2</ele>
        <time>2019-08-20T17:53:40Z</time>
      </trkpt>
      <trkpt lat="59.406807947986" lon="17.975272635903">
        <ele>97.8</ele>
        <time>2019-08-20T17:53:42Z</time>
      </trkpt>
      <trkpt lat="59.406929066441" lon="17.975262577623">
        <ele>98.8</ele>
        <time>2019-08-20T17:53:45Z</time>
      </trkpt>
      <trkpt lat="59.406973406692" lon="17.97524606528">
        <ele>99</ele>
        <time>2019-08-20T17:53:46Z</time>
      </trkpt>
      <trkpt lat="59.407015651468" lon="17.975225864901">
        <ele>99</ele>
        <time>2019-08-20T17:53:47Z</time>
      </trkpt>
      <trkpt lat="59.407578328415" lon="17.974935851161">
        <ele>99.8</ele>
        <time>2019-08-20T17:53:58Z</time>
      </trkpt>
      <trkpt lat="59.40785786478" lon="17.9747582387">
        <ele>100</ele>
        <time>2019-08-20T17:54:03Z</time>
      </trkpt>
      <trkpt lat="59.408297495435" lon="17.974158262298">
        <ele>100.2</ele>
        <time>2019-08-20T17:54:14Z</time>
      </trkpt>
      <trkpt lat="59.408332447958" lon="17.97410528869">
        <ele>100.2</ele>
        <time>2019-08-20T17:54:15Z</time>
      </trkpt>
      <trkpt lat="59.408419032985" lon="17.97400302951">
        <ele>100.6</ele>
        <time>2019-08-20T17:54:18Z</time>
      </trkpt>
      <trkpt lat="59.408434707138" lon="17.973967490254">
        <ele>101</ele>
        <time>2019-08-20T17:54:22Z</time>
      </trkpt>
      <trkpt lat="59.408440993563" lon="17.973959024535">
        <ele>100.8</ele>
        <time>2019-08-20T17:54:34Z</time>
      </trkpt>
      <trkpt lat="59.408461780675" lon="17.97404410082">
        <ele>100.8</ele>
        <time>2019-08-20T17:54:37Z</time>
      </trkpt>
      <trkpt lat="59.408474856439" lon="17.974122974499">
        <ele>101.2</ele>
        <time>2019-08-20T17:54:40Z</time>
      </trkpt>
      <trkpt lat="59.408585162243" lon="17.974265047704">
        <ele>101</ele>
        <time>2019-08-20T17:54:44Z</time>
      </trkpt>
      <trkpt lat="59.408818346701" lon="17.974670647845">
        <ele>101.4</ele>
        <time>2019-08-20T17:54:50Z</time>
      </trkpt>
      <trkpt lat="59.408904847909" lon="17.974766788238">
        <ele>101.2</ele>
        <time>2019-08-20T17:54:52Z</time>
      </trkpt>
      <trkpt lat="59.409018590292" lon="17.974654135502">
        <ele>100.8</ele>
        <time>2019-08-20T17:54:54Z</time>
      </trkpt>
      <trkpt lat="59.409448665581" lon="17.973961874381">
        <ele>100.4</ele>
        <time>2019-08-20T17:55:02Z</time>
      </trkpt>
      <trkpt lat="59.409504153759" lon="17.97387059549">
        <ele>100.4</ele>
        <time>2019-08-20T17:55:03Z</time>
      </trkpt>
      <trkpt lat="59.409636755417" lon="17.973742100963">
        <ele>99.8</ele>
        <time>2019-08-20T17:55:05Z</time>
      </trkpt>
      <trkpt lat="59.410192643025" lon="17.973544707218">
        <ele>98.6</ele>
        <time>2019-08-20T17:55:12Z</time>
      </trkpt>
      <trkpt lat="59.410619365554" lon="17.973445046427">
        <ele>97.2</ele>
        <time>2019-08-20T17:55:17Z</time>
      </trkpt>
      <trkpt lat="59.410881970481" lon="17.973405651497">
        <ele>96.4</ele>
        <time>2019-08-20T17:55:20Z</time>
      </trkpt>
      <trkpt lat="59.41105136868" lon="17.973416799424">
        <ele>96</ele>
        <time>2019-08-20T17:55:22Z</time>
      </trkpt>
      <trkpt lat="59.411392847286" lon="17.973410932094">
        <ele>95</ele>
        <time>2019-08-20T17:55:26Z</time>
      </trkpt>
      <trkpt lat="59.411982681589" lon="17.973306074525">
        <ele>94.8</ele>
        <time>2019-08-20T17:55:33Z</time>
      </trkpt>
      <trkpt lat="59.412526834537" lon="17.973211191417">
        <ele>94</ele>
        <time>2019-08-20T17:55:40Z</time>
      </trkpt>
      <trkpt lat="59.413100156497" lon="17.973143130389">
        <ele>95</ele>
        <time>2019-08-20T17:55:48Z</time>
      </trkpt>
      <trkpt lat="59.413419506887" lon="17.973058808475">
        <ele>96</ele>
        <time>2019-08-20T17:55:53Z</time>
      </trkpt>
      <trkpt lat="59.41386181975" lon="17.972967194308">
        <ele>97.2</ele>
        <time>2019-08-20T17:56:00Z</time>
      </trkpt>
      <trkpt lat="59.414427514181" lon="17.972893433588">
        <ele>97.2</ele>
        <time>2019-08-20T17:56:08Z</time>
      </trkpt>
      <trkpt lat="59.414985245807" lon="17.97287147301">
        <ele>97</ele>
        <time>2019-08-20T17:56:15Z</time>
      </trkpt>
      <trkpt lat="59.415562088165" lon="17.972784720345">
        <ele>97.2</ele>
        <time>2019-08-20T17:56:23Z</time>
      </trkpt>
      <trkpt lat="59.415817484658" lon="17.972763011224">
        <ele>98.4</ele>
        <time>2019-08-20T17:56:27Z</time>
      </trkpt>
      <trkpt lat="59.416010016901" lon="17.972753036763">
        <ele>99.6</ele>
        <time>2019-08-20T17:56:30Z</time>
      </trkpt>
      <trkpt lat="59.416578142083" lon="17.972560672158">
        <ele>98.4</ele>
        <time>2019-08-20T17:56:38Z</time>
      </trkpt>
      <trkpt lat="59.416836220784" lon="17.972535442639">
        <ele>97.2</ele>
        <time>2019-08-20T17:56:41Z</time>
      </trkpt>
      <trkpt lat="59.417104022489" lon="17.972525216721">
        <ele>96</ele>
        <time>2019-08-20T17:56:44Z</time>
      </trkpt>
      <trkpt lat="59.417369561081" lon="17.972509291111">
        <ele>94.8</ele>
        <time>2019-08-20T17:56:47Z</time>
      </trkpt>
      <trkpt lat="59.41791949754" lon="17.972441816816">
        <ele>94.2</ele>
        <time>2019-08-20T17:56:53Z</time>
      </trkpt>
      <trkpt lat="59.418023265462" lon="17.97243561421">
        <ele>93.4</ele>
        <time>2019-08-20T17:56:54Z</time>
      </trkpt>
      <trkpt lat="59.41823549517" lon="17.972414743279">
        <ele>91.6</ele>
        <time>2019-08-20T17:56:56Z</time>
      </trkpt>
      <trkpt lat="59.418447221964" lon="17.972385825724">
        <ele>90.2</ele>
        <time>2019-08-20T17:56:58Z</time>
      </trkpt>
      <trkpt lat="59.418849972259" lon="17.972303683104">
        <ele>89.2</ele>
        <time>2019-08-20T17:57:02Z</time>
      </trkpt>
      <trkpt lat="59.419221960981" lon="17.972200585734">
        <ele>87.8</ele>
        <time>2019-08-20T17:57:06Z</time>
      </trkpt>
      <trkpt lat="59.419377026131" lon="17.972199328449">
        <ele>86.8</ele>
        <time>2019-08-20T17:57:08Z</time>
      </trkpt>
      <trkpt lat="59.419441818218" lon="17.972230341479">
        <ele>86.6</ele>
        <time>2019-08-20T17:57:09Z</time>
      </trkpt>
      <trkpt lat="59.419529995806" lon="17.972288176589">
        <ele>86.6</ele>
        <time>2019-08-20T17:57:11Z</time>
      </trkpt>
      <trkpt lat="59.419630075692" lon="17.972229838565">
        <ele>86.6</ele>
        <time>2019-08-20T17:57:13Z</time>
      </trkpt>
      <trkpt lat="59.419718588556" lon="17.972017273581">
        <ele>86.6</ele>
        <time>2019-08-20T17:57:15Z</time>
      </trkpt>
      <trkpt lat="59.420023857354" lon="17.971089061975">
        <ele>86.6</ele>
        <time>2019-08-20T17:57:24Z</time>
      </trkpt>
      <trkpt lat="59.420331975998" lon="17.970148612795">
        <ele>87.2</ele>
        <time>2019-08-20T17:57:33Z</time>
      </trkpt>
      <trkpt lat="59.420440437784" lon="17.969833118079">
        <ele>87.6</ele>
        <time>2019-08-20T17:57:36Z</time>
      </trkpt>
      <trkpt lat="59.420471283176" lon="17.969730523623">
        <ele>87.8</ele>
        <time>2019-08-20T17:57:37Z</time>
      </trkpt>
      <trkpt lat="59.420711340792" lon="17.968741291785">
        <ele>88.8</ele>
        <time>2019-08-20T17:57:47Z</time>
      </trkpt>
      <trkpt lat="59.420744114021" lon="17.968647414505">
        <ele>89</ele>
        <time>2019-08-20T17:57:48Z</time>
      </trkpt>
      <trkpt lat="59.421192545671" lon="17.967837806784">
        <ele>89.6</ele>
        <time>2019-08-20T17:57:57Z</time>
      </trkpt>
      <trkpt lat="59.421644832995" lon="17.96725560001">
        <ele>89.2</ele>
        <time>2019-08-20T17:58:04Z</time>
      </trkpt>
      <trkpt lat="59.421748852374" lon="17.9671139459">
        <ele>89.6</ele>
        <time>2019-08-20T17:58:06Z</time>
      </trkpt>
      <trkpt lat="59.421785648915" lon="17.966949073927">
        <ele>89.8</ele>
        <time>2019-08-20T17:58:08Z</time>
      </trkpt>
      <trkpt lat="59.42175086403" lon="17.966814460613">
        <ele>88.8</ele>
        <time>2019-08-20T17:58:14Z</time>
      </trkpt>
    </trkseg>
  </trk>
</gpx>